sensor_id;sensor_type;location;lat;lon;timestamp;P1;durP1;ratioP1;P2;durP2;ratioP2
16624;SDS011;8426;48.496;9.098;2023-03-01T00:02:41;20.40;;;9.70;;
16624;SDS011;8426;48.496;9.098;2023-03-01T00:07:46;22.47;;;10.63;;
16624;SDS011;8426;48.496;9.098;2023-03-01T00:12:49;20.77;;;9.20;;
16624;SDS011;8426;48.496;9.098;2023-03-01T00:17:53;21.33;;;9.77;;
16624;SDS011;8426;48.496;9.098;2023-03-01T00:22:57;19.73;;;9.30;;
16624;SDS011;8426;48.496;9.098;2023-03-01T00:28:00;20.93;;;9.87;;
16624;SDS011;8426;48.496;9.098;2023-03-01T00:33:07;24.00;;;9.63;;
16624;SDS011;8426;48.496;9.098;2023-03-01T00:38:12;24.27;;;10.20;;
16624;SDS011;8426;48.496;9.098;2023-03-01T00:43:16;32.47;;;12.60;;
16624;SDS011;8426;48.496;9.098;2023-03-01T00:48:20;25.33;;;11.07;;
16624;SDS011;8426;48.496;9.098;2023-03-01T00:53:24;21.37;;;11.00;;
16624;SDS011;8426;48.496;9.098;2023-03-01T00:58:28;25.07;;;10.40;;
16624;SDS011;8426;48.496;9.098;2023-03-01T01:03:32;23.37;;;9.80;;
16624;SDS011;8426;48.496;9.098;2023-03-01T01:08:36;22.97;;;11.03;;
16624;SDS011;8426;48.496;9.098;2023-03-01T01:13:40;25.30;;;10.20;;
16624;SDS011;8426;48.496;9.098;2023-03-01T01:18:45;21.90;;;10.13;;
16624;SDS011;8426;48.496;9.098;2023-03-01T01:23:50;21.43;;;9.87;;
16624;SDS011;8426;48.496;9.098;2023-03-01T01:28:54;21.90;;;10.00;;
16624;SDS011;8426;48.496;9.098;2023-03-01T01:33:58;25.30;;;10.27;;
16624;SDS011;8426;48.496;9.098;2023-03-01T01:39:04;20.73;;;8.67;;
16624;SDS011;8426;48.496;9.098;2023-03-01T01:44:11;26.17;;;10.77;;
16624;SDS011;8426;48.496;9.098;2023-03-01T01:49:19;26.30;;;10.43;;
16624;SDS011;8426;48.496;9.098;2023-03-01T01:54:29;21.13;;;9.80;;
16624;SDS011;8426;48.496;9.098;2023-03-01T01:59:39;21.77;;;10.20;;
16624;SDS011;8426;48.496;9.098;2023-03-01T02:04:45;20.90;;;10.17;;
16624;SDS011;8426;48.496;9.098;2023-03-01T02:09:51;19.67;;;9.00;;
16624;SDS011;8426;48.496;9.098;2023-03-01T02:14:55;20.50;;;9.70;;
16624;SDS011;8426;48.496;9.098;2023-03-01T02:20:03;19.53;;;10.07;;
16624;SDS011;8426;48.496;9.098;2023-03-01T02:30:49;20.93;;;10.17;;
16624;SDS011;8426;48.496;9.098;2023-03-01T02:36:14;23.13;;;11.80;;
16624;SDS011;8426;48.496;9.098;2023-03-01T02:41:21;19.27;;;9.73;;
16624;SDS011;8426;48.496;9.098;2023-03-01T02:46:31;25.50;;;10.87;;
16624;SDS011;8426;48.496;9.098;2023-03-01T02:51:40;21.40;;;10.33;;
16624;SDS011;8426;48.496;9.098;2023-03-01T02:56:50;24.30;;;10.33;;
16624;SDS011;8426;48.496;9.098;2023-03-01T03:01:55;22.00;;;10.33;;
16624;SDS011;8426;48.496;9.098;2023-03-01T03:06:59;22.37;;;10.67;;
16624;SDS011;8426;48.496;9.098;2023-03-01T03:12:02;16.63;;;9.00;;
16624;SDS011;8426;48.496;9.098;2023-03-01T03:17:08;19.10;;;9.20;;
16624;SDS011;8426;48.496;9.098;2023-03-01T03:22:12;24.13;;;10.97;;
16624;SDS011;8426;48.496;9.098;2023-03-01T03:27:15;23.43;;;9.97;;
16624;SDS011;8426;48.496;9.098;2023-03-01T03:32:24;23.13;;;10.47;;
16624;SDS011;8426;48.496;9.098;2023-03-01T03:37:28;23.30;;;9.80;;
16624;SDS011;8426;48.496;9.098;2023-03-01T03:42:48;22.53;;;10.93;;
16624;SDS011;8426;48.496;9.098;2023-03-01T03:47:53;24.37;;;10.83;;
16624;SDS011;8426;48.496;9.098;2023-03-01T03:52:59;21.17;;;10.67;;
16624;SDS011;8426;48.496;9.098;2023-03-01T03:58:03;24.73;;;10.37;;
16624;SDS011;8426;48.496;9.098;2023-03-01T04:03:10;24.13;;;10.37;;
16624;SDS011;8426;48.496;9.098;2023-03-01T04:08:15;22.00;;;10.20;;
16624;SDS011;8426;48.496;9.098;2023-03-01T04:13:21;21.40;;;10.13;;
16624;SDS011;8426;48.496;9.098;2023-03-01T04:18:28;25.13;;;11.23;;
16624;SDS011;8426;48.496;9.098;2023-03-01T04:23:32;23.97;;;11.30;;
16624;SDS011;8426;48.496;9.098;2023-03-01T04:28:37;20.97;;;10.57;;
16624;SDS011;8426;48.496;9.098;2023-03-01T04:33:46;25.57;;;10.17;;
16624;SDS011;8426;48.496;9.098;2023-03-01T04:38:53;18.77;;;9.77;;
16624;SDS011;8426;48.496;9.098;2023-03-01T04:43:56;25.93;;;11.00;;
16624;SDS011;8426;48.496;9.098;2023-03-01T04:49:02;24.37;;;10.97;;
16624;SDS011;8426;48.496;9.098;2023-03-01T04:54:07;25.87;;;11.57;;
16624;SDS011;8426;48.496;9.098;2023-03-01T04:59:11;23.20;;;10.57;;
16624;SDS011;8426;48.496;9.098;2023-03-01T05:04:16;25.80;;;10.83;;
16624;SDS011;8426;48.496;9.098;2023-03-01T05:09:20;21.97;;;10.47;;
16624;SDS011;8426;48.496;9.098;2023-03-01T05:14:23;24.03;;;10.50;;
16624;SDS011;8426;48.496;9.098;2023-03-01T05:19:28;26.67;;;11.23;;
16624;SDS011;8426;48.496;9.098;2023-03-01T05:24:33;25.93;;;10.47;;
16624;SDS011;8426;48.496;9.098;2023-03-01T05:29:37;23.47;;;11.17;;
16624;SDS011;8426;48.496;9.098;2023-03-01T05:34:43;25.30;;;10.87;;
16624;SDS011;8426;48.496;9.098;2023-03-01T05:39:47;28.60;;;11.63;;
16624;SDS011;8426;48.496;9.098;2023-03-01T05:44:51;29.47;;;11.37;;
16624;SDS011;8426;48.496;9.098;2023-03-01T05:49:56;28.23;;;12.40;;
16624;SDS011;8426;48.496;9.098;2023-03-01T05:54:59;26.83;;;11.57;;
16624;SDS011;8426;48.496;9.098;2023-03-01T06:00:03;25.90;;;10.83;;
16624;SDS011;8426;48.496;9.098;2023-03-01T06:05:11;23.57;;;11.20;;
16624;SDS011;8426;48.496;9.098;2023-03-01T06:10:15;31.27;;;12.40;;
16624;SDS011;8426;48.496;9.098;2023-03-01T06:15:21;21.43;;;10.43;;
16624;SDS011;8426;48.496;9.098;2023-03-01T06:20:28;24.00;;;11.03;;
16624;SDS011;8426;48.496;9.098;2023-03-01T06:25:33;23.87;;;11.10;;
16624;SDS011;8426;48.496;9.098;2023-03-01T06:30:36;26.00;;;11.57;;
16624;SDS011;8426;48.496;9.098;2023-03-01T06:35:42;27.20;;;11.80;;
16624;SDS011;8426;48.496;9.098;2023-03-01T06:40:50;24.67;;;11.70;;
16624;SDS011;8426;48.496;9.098;2023-03-01T06:45:58;21.97;;;11.40;;
16624;SDS011;8426;48.496;9.098;2023-03-01T06:51:03;25.57;;;11.57;;
16624;SDS011;8426;48.496;9.098;2023-03-01T06:56:07;36.83;;;12.17;;
16624;SDS011;8426;48.496;9.098;2023-03-01T07:01:14;23.43;;;12.33;;
16624;SDS011;8426;48.496;9.098;2023-03-01T07:06:21;28.20;;;12.87;;
16624;SDS011;8426;48.496;9.098;2023-03-01T07:11:25;22.93;;;11.07;;
16624;SDS011;8426;48.496;9.098;2023-03-01T07:16:28;22.93;;;10.60;;
16624;SDS011;8426;48.496;9.098;2023-03-01T07:21:34;18.93;;;9.57;;
16624;SDS011;8426;48.496;9.098;2023-03-01T07:26:37;18.23;;;9.53;;
16624;SDS011;8426;48.496;9.098;2023-03-01T07:31:43;21.47;;;10.27;;
16624;SDS011;8426;48.496;9.098;2023-03-01T07:36:48;24.17;;;10.75;;
16624;SDS011;8426;48.496;9.098;2023-03-01T07:41:52;18.17;;;9.43;;
16624;SDS011;8426;48.496;9.098;2023-03-01T07:46:55;28.50;;;10.15;;
16624;SDS011;8426;48.496;9.098;2023-03-01T07:52:01;24.17;;;10.27;;
16624;SDS011;8426;48.496;9.098;2023-03-01T07:57:04;20.35;;;9.90;;
16624;SDS011;8426;48.496;9.098;2023-03-01T08:02:12;19.17;;;9.98;;
16624;SDS011;8426;48.496;9.098;2023-03-01T08:07:17;22.30;;;9.80;;
16624;SDS011;8426;48.496;9.098;2023-03-01T08:12:25;20.55;;;10.35;;
16624;SDS011;8426;48.496;9.098;2023-03-01T08:17:30;23.10;;;10.50;;
16624;SDS011;8426;48.496;9.098;2023-03-01T08:22:35;24.20;;;11.53;;
16624;SDS011;8426;48.496;9.098;2023-03-01T08:27:44;23.43;;;11.60;;
16624;SDS011;8426;48.496;9.098;2023-03-01T08:32:50;30.07;;;11.10;;
16624;SDS011;8426;48.496;9.098;2023-03-01T08:37:57;20.77;;;10.83;;
16624;SDS011;8426;48.496;9.098;2023-03-01T08:43:01;23.23;;;11.33;;
16624;SDS011;8426;48.496;9.098;2023-03-01T08:48:05;23.48;;;10.88;;
16624;SDS011;8426;48.496;9.098;2023-03-01T08:53:12;21.92;;;10.52;;
16624;SDS011;8426;48.496;9.098;2023-03-01T08:58:17;19.88;;;10.15;;
16624;SDS011;8426;48.496;9.098;2023-03-01T09:03:20;20.33;;;10.18;;
16624;SDS011;8426;48.496;9.098;2023-03-01T09:08:27;20.15;;;10.45;;
16624;SDS011;8426;48.496;9.098;2023-03-01T09:13:32;21.60;;;9.85;;
16624;SDS011;8426;48.496;9.098;2023-03-01T09:18:43;26.20;;;11.05;;
16624;SDS011;8426;48.496;9.098;2023-03-01T09:23:50;19.00;;;10.25;;
16624;SDS011;8426;48.496;9.098;2023-03-01T09:28:54;18.45;;;9.70;;
16624;SDS011;8426;48.496;9.098;2023-03-01T09:33:58;22.52;;;10.80;;
16624;SDS011;8426;48.496;9.098;2023-03-01T09:39:03;19.70;;;10.30;;
16624;SDS011;8426;48.496;9.098;2023-03-01T09:44:10;22.25;;;10.45;;
16624;SDS011;8426;48.496;9.098;2023-03-01T09:49:40;20.88;;;10.82;;
16624;SDS011;8426;48.496;9.098;2023-03-01T09:54:53;20.63;;;10.68;;
16624;SDS011;8426;48.496;9.098;2023-03-01T10:00:03;22.67;;;11.18;;
16624;SDS011;8426;48.496;9.098;2023-03-01T10:05:35;22.40;;;11.05;;
16624;SDS011;8426;48.496;9.098;2023-03-01T10:10:51;20.73;;;10.48;;
16624;SDS011;8426;48.496;9.098;2023-03-01T10:15:56;21.30;;;10.85;;
16624;SDS011;8426;48.496;9.098;2023-03-01T10:21:07;18.70;;;10.05;;
16624;SDS011;8426;48.496;9.098;2023-03-01T10:26:50;23.80;;;11.98;;
16624;SDS011;8426;48.496;9.098;2023-03-01T10:31:57;21.65;;;10.98;;
16624;SDS011;8426;48.496;9.098;2023-03-01T10:37:09;24.45;;;11.63;;
16624;SDS011;8426;48.496;9.098;2023-03-01T10:42:22;29.85;;;11.30;;
16624;SDS011;8426;48.496;9.098;2023-03-01T10:47:30;28.88;;;10.63;;
16624;SDS011;8426;48.496;9.098;2023-03-01T10:52:34;23.63;;;11.35;;
16624;SDS011;8426;48.496;9.098;2023-03-01T10:57:41;19.52;;;10.32;;
16624;SDS011;8426;48.496;9.098;2023-03-01T11:02:46;21.67;;;10.43;;
16624;SDS011;8426;48.496;9.098;2023-03-01T11:07:52;19.60;;;10.73;;
16624;SDS011;8426;48.496;9.098;2023-03-01T11:13:14;27.35;;;11.02;;
16624;SDS011;8426;48.496;9.098;2023-03-01T11:18:22;21.08;;;11.35;;
16624;SDS011;8426;48.496;9.098;2023-03-01T11:23:46;25.55;;;11.80;;
16624;SDS011;8426;48.496;9.098;2023-03-01T11:28:54;20.75;;;10.68;;
16624;SDS011;8426;48.496;9.098;2023-03-01T11:34:02;24.88;;;9.68;;
16624;SDS011;8426;48.496;9.098;2023-03-01T11:39:16;24.95;;;11.75;;
16624;SDS011;8426;48.496;9.098;2023-03-01T11:44:28;21.35;;;9.70;;
16624;SDS011;8426;48.496;9.098;2023-03-01T11:49:41;21.95;;;10.82;;
16624;SDS011;8426;48.496;9.098;2023-03-01T11:55:12;24.90;;;9.63;;
16624;SDS011;8426;48.496;9.098;2023-03-01T12:00:33;20.23;;;9.35;;
16624;SDS011;8426;48.496;9.098;2023-03-01T12:05:50;19.70;;;10.13;;
16624;SDS011;8426;48.496;9.098;2023-03-01T12:11:32;17.98;;;8.80;;
16624;SDS011;8426;48.496;9.098;2023-03-01T12:17:00;17.58;;;9.73;;
16624;SDS011;8426;48.496;9.098;2023-03-01T12:22:32;24.70;;;10.40;;
16624;SDS011;8426;48.496;9.098;2023-03-01T12:27:56;19.90;;;10.02;;
16624;SDS011;8426;48.496;9.098;2023-03-01T12:33:30;19.85;;;10.35;;
16624;SDS011;8426;48.496;9.098;2023-03-01T12:38:45;22.27;;;9.70;;
16624;SDS011;8426;48.496;9.098;2023-03-01T12:43:58;27.77;;;10.02;;
16624;SDS011;8426;48.496;9.098;2023-03-01T12:49:12;27.48;;;9.07;;
16624;SDS011;8426;48.496;9.098;2023-03-01T12:54:20;18.13;;;9.35;;
16624;SDS011;8426;48.496;9.098;2023-03-01T12:59:31;19.52;;;9.75;;
16624;SDS011;8426;48.496;9.098;2023-03-01T13:05:04;19.33;;;9.40;;
16624;SDS011;8426;48.496;9.098;2023-03-01T13:10:26;21.70;;;9.35;;
16624;SDS011;8426;48.496;9.098;2023-03-01T13:15:37;21.70;;;9.70;;
16624;SDS011;8426;48.496;9.098;2023-03-01T13:20:46;17.77;;;8.77;;
16624;SDS011;8426;48.496;9.098;2023-03-01T13:26:02;20.65;;;8.73;;
16624;SDS011;8426;48.496;9.098;2023-03-01T13:37:10;18.20;;;9.52;;
16624;SDS011;8426;48.496;9.098;2023-03-01T13:42:38;20.65;;;8.95;;
16624;SDS011;8426;48.496;9.098;2023-03-01T13:47:52;18.73;;;8.55;;
16624;SDS011;8426;48.496;9.098;2023-03-01T13:53:01;26.80;;;9.52;;
16624;SDS011;8426;48.496;9.098;2023-03-01T13:58:19;20.38;;;10.18;;
16624;SDS011;8426;48.496;9.098;2023-03-01T14:03:27;21.45;;;10.82;;
16624;SDS011;8426;48.496;9.098;2023-03-01T14:08:34;18.50;;;9.63;;
16624;SDS011;8426;48.496;9.098;2023-03-01T14:13:44;23.42;;;8.85;;
16624;SDS011;8426;48.496;9.098;2023-03-01T14:19:00;19.10;;;8.60;;
16624;SDS011;8426;48.496;9.098;2023-03-01T14:24:20;17.60;;;8.95;;
16624;SDS011;8426;48.496;9.098;2023-03-01T14:29:25;19.95;;;10.25;;
16624;SDS011;8426;48.496;9.098;2023-03-01T14:34:29;21.17;;;9.30;;
16624;SDS011;8426;48.496;9.098;2023-03-01T14:39:34;17.92;;;9.07;;
16624;SDS011;8426;48.496;9.098;2023-03-01T14:44:37;21.60;;;9.63;;
16624;SDS011;8426;48.496;9.098;2023-03-01T14:49:42;18.80;;;9.45;;
16624;SDS011;8426;48.496;9.098;2023-03-01T14:54:48;19.20;;;9.38;;
16624;SDS011;8426;48.496;9.098;2023-03-01T14:59:54;17.90;;;9.07;;
16624;SDS011;8426;48.496;9.098;2023-03-01T15:05:25;23.65;;;9.02;;
16624;SDS011;8426;48.496;9.098;2023-03-01T15:10:33;21.85;;;9.90;;
16624;SDS011;8426;48.496;9.098;2023-03-01T15:15:40;17.33;;;8.68;;
16624;SDS011;8426;48.496;9.098;2023-03-01T15:20:45;23.88;;;9.48;;
16624;SDS011;8426;48.496;9.098;2023-03-01T15:25:54;25.13;;;9.50;;
16624;SDS011;8426;48.496;9.098;2023-03-01T15:31:18;18.35;;;9.93;;
16624;SDS011;8426;48.496;9.098;2023-03-01T15:36:48;24.98;;;9.52;;
16624;SDS011;8426;48.496;9.098;2023-03-01T15:41:54;19.23;;;9.43;;
16624;SDS011;8426;48.496;9.098;2023-03-01T15:46:58;22.85;;;10.82;;
16624;SDS011;8426;48.496;9.098;2023-03-01T15:52:03;21.27;;;10.05;;
16624;SDS011;8426;48.496;9.098;2023-03-01T15:57:10;23.60;;;10.75;;
16624;SDS011;8426;48.496;9.098;2023-03-01T16:02:17;22.02;;;10.38;;
16624;SDS011;8426;48.496;9.098;2023-03-01T16:07:22;29.45;;;11.20;;
16624;SDS011;8426;48.496;9.098;2023-03-01T16:12:30;23.23;;;10.95;;
16624;SDS011;8426;48.496;9.098;2023-03-01T16:17:34;28.50;;;11.32;;
16624;SDS011;8426;48.496;9.098;2023-03-01T16:22:37;26.00;;;10.80;;
16624;SDS011;8426;48.496;9.098;2023-03-01T16:27:43;26.52;;;10.82;;
16624;SDS011;8426;48.496;9.098;2023-03-01T16:32:49;25.42;;;10.70;;
16624;SDS011;8426;48.496;9.098;2023-03-01T16:37:53;21.88;;;9.57;;
16624;SDS011;8426;48.496;9.098;2023-03-01T16:43:00;18.63;;;9.23;;
16624;SDS011;8426;48.496;9.098;2023-03-01T16:48:04;19.25;;;9.52;;
16624;SDS011;8426;48.496;9.098;2023-03-01T16:53:12;18.73;;;9.82;;
16624;SDS011;8426;48.496;9.098;2023-03-01T16:58:17;27.27;;;9.50;;
16624;SDS011;8426;48.496;9.098;2023-03-01T17:03:20;28.17;;;10.75;;
16624;SDS011;8426;48.496;9.098;2023-03-01T17:08:24;25.55;;;11.45;;
16624;SDS011;8426;48.496;9.098;2023-03-01T17:13:29;28.00;;;9.98;;
16624;SDS011;8426;48.496;9.098;2023-03-01T17:18:33;20.77;;;10.20;;
16624;SDS011;8426;48.496;9.098;2023-03-01T17:23:38;19.85;;;9.25;;
16624;SDS011;8426;48.496;9.098;2023-03-01T17:28:47;23.15;;;10.80;;
16624;SDS011;8426;48.496;9.098;2023-03-01T17:33:52;25.48;;;11.02;;
16624;SDS011;8426;48.496;9.098;2023-03-01T17:38:59;23.88;;;11.32;;
16624;SDS011;8426;48.496;9.098;2023-03-01T17:44:04;36.13;;;13.80;;
16624;SDS011;8426;48.496;9.098;2023-03-01T17:49:07;28.47;;;11.37;;
16624;SDS011;8426;48.496;9.098;2023-03-01T17:54:11;26.17;;;11.40;;
16624;SDS011;8426;48.496;9.098;2023-03-01T17:59:18;23.08;;;9.77;;
16624;SDS011;8426;48.496;9.098;2023-03-01T18:04:22;24.88;;;11.38;;
16624;SDS011;8426;48.496;9.098;2023-03-01T18:09:26;22.17;;;10.20;;
16624;SDS011;8426;48.496;9.098;2023-03-01T18:14:33;21.88;;;10.70;;
16624;SDS011;8426;48.496;9.098;2023-03-01T18:19:37;22.65;;;10.55;;
16624;SDS011;8426;48.496;9.098;2023-03-01T18:24:42;23.23;;;10.93;;
16624;SDS011;8426;48.496;9.098;2023-03-01T18:29:47;31.92;;;12.68;;
16624;SDS011;8426;48.496;9.098;2023-03-01T18:34:50;23.77;;;11.60;;
16624;SDS011;8426;48.496;9.098;2023-03-01T18:39:58;29.25;;;13.68;;
16624;SDS011;8426;48.496;9.098;2023-03-01T18:45:07;25.23;;;11.00;;
16624;SDS011;8426;48.496;9.098;2023-03-01T18:50:11;23.48;;;10.68;;
16624;SDS011;8426;48.496;9.098;2023-03-01T18:55:14;22.37;;;10.53;;
16624;SDS011;8426;48.496;9.098;2023-03-01T19:00:21;26.87;;;11.77;;
16624;SDS011;8426;48.496;9.098;2023-03-01T19:05:25;23.13;;;10.73;;
16624;SDS011;8426;48.496;9.098;2023-03-01T19:10:31;21.57;;;10.43;;
16624;SDS011;8426;48.496;9.098;2023-03-01T19:15:36;18.30;;;9.57;;
16624;SDS011;8426;48.496;9.098;2023-03-01T19:20:47;24.02;;;10.57;;
16624;SDS011;8426;48.496;9.098;2023-03-01T19:25:57;22.20;;;10.97;;
16624;SDS011;8426;48.496;9.098;2023-03-01T19:31:03;23.53;;;10.37;;
16624;SDS011;8426;48.496;9.098;2023-03-01T19:36:08;21.23;;;9.33;;
16624;SDS011;8426;48.496;9.098;2023-03-01T19:41:14;21.87;;;9.87;;
16624;SDS011;8426;48.496;9.098;2023-03-01T19:46:20;25.48;;;10.77;;
16624;SDS011;8426;48.496;9.098;2023-03-01T19:51:24;25.13;;;11.53;;
16624;SDS011;8426;48.496;9.098;2023-03-01T19:56:28;29.93;;;12.17;;
16624;SDS011;8426;48.496;9.098;2023-03-01T20:01:33;26.03;;;11.93;;
16624;SDS011;8426;48.496;9.098;2023-03-01T20:06:40;29.13;;;12.60;;
16624;SDS011;8426;48.496;9.098;2023-03-01T20:11:47;26.07;;;12.00;;
16624;SDS011;8426;48.496;9.098;2023-03-01T20:16:52;26.83;;;11.33;;
16624;SDS011;8426;48.496;9.098;2023-03-01T20:21:56;27.43;;;11.67;;
16624;SDS011;8426;48.496;9.098;2023-03-01T20:26:59;24.40;;;11.43;;
16624;SDS011;8426;48.496;9.098;2023-03-01T20:32:14;29.07;;;11.93;;
16624;SDS011;8426;48.496;9.098;2023-03-01T20:37:18;28.83;;;11.63;;
16624;SDS011;8426;48.496;9.098;2023-03-01T20:42:23;35.23;;;12.23;;
16624;SDS011;8426;48.496;9.098;2023-03-01T20:47:27;23.97;;;11.67;;
16624;SDS011;8426;48.496;9.098;2023-03-01T20:52:31;21.27;;;10.13;;
16624;SDS011;8426;48.496;9.098;2023-03-01T20:57:47;28.03;;;11.50;;
16624;SDS011;8426;48.496;9.098;2023-03-01T21:02:52;22.60;;;10.90;;
16624;SDS011;8426;48.496;9.098;2023-03-01T21:07:55;25.30;;;11.27;;
16624;SDS011;8426;48.496;9.098;2023-03-01T21:13:01;25.00;;;11.17;;
16624;SDS011;8426;48.496;9.098;2023-03-01T21:18:06;25.27;;;11.73;;
16624;SDS011;8426;48.496;9.098;2023-03-01T21:23:10;27.73;;;12.67;;
16624;SDS011;8426;48.496;9.098;2023-03-01T21:28:13;24.53;;;12.20;;
16624;SDS011;8426;48.496;9.098;2023-03-01T21:33:18;28.03;;;12.47;;
16624;SDS011;8426;48.496;9.098;2023-03-01T21:38:22;30.13;;;13.10;;
16624;SDS011;8426;48.496;9.098;2023-03-01T21:43:26;25.63;;;11.70;;
16624;SDS011;8426;48.496;9.098;2023-03-01T21:48:31;25.27;;;11.67;;
16624;SDS011;8426;48.496;9.098;2023-03-01T21:53:35;26.13;;;12.80;;
16624;SDS011;8426;48.496;9.098;2023-03-01T21:58:39;25.07;;;11.80;;
16624;SDS011;8426;48.496;9.098;2023-03-01T22:03:44;31.43;;;12.30;;
16624;SDS011;8426;48.496;9.098;2023-03-01T22:08:48;27.27;;;13.10;;
16624;SDS011;8426;48.496;9.098;2023-03-01T22:13:54;26.47;;;12.77;;
16624;SDS011;8426;48.496;9.098;2023-03-01T22:18:59;28.73;;;12.67;;
16624;SDS011;8426;48.496;9.098;2023-03-01T22:24:03;27.60;;;12.37;;
16624;SDS011;8426;48.496;9.098;2023-03-01T22:29:08;33.43;;;13.40;;
16624;SDS011;8426;48.496;9.098;2023-03-01T22:34:15;30.97;;;13.17;;
16624;SDS011;8426;48.496;9.098;2023-03-01T22:39:19;27.87;;;13.40;;
16624;SDS011;8426;48.496;9.098;2023-03-01T22:44:23;31.87;;;12.83;;
16624;SDS011;8426;48.496;9.098;2023-03-01T22:49:27;31.00;;;13.13;;
16624;SDS011;8426;48.496;9.098;2023-03-01T22:54:31;34.60;;;13.63;;
16624;SDS011;8426;48.496;9.098;2023-03-01T22:59:34;33.50;;;13.73;;
16624;SDS011;8426;48.496;9.098;2023-03-01T23:04:39;30.83;;;13.53;;
16624;SDS011;8426;48.496;9.098;2023-03-01T23:09:44;31.47;;;14.03;;
16624;SDS011;8426;48.496;9.098;2023-03-01T23:14:51;31.53;;;14.03;;
16624;SDS011;8426;48.496;9.098;2023-03-01T23:19:57;29.80;;;13.00;;
16624;SDS011;8426;48.496;9.098;2023-03-01T23:25:01;28.33;;;13.47;;
16624;SDS011;8426;48.496;9.098;2023-03-01T23:30:04;28.37;;;12.00;;
16624;SDS011;8426;48.496;9.098;2023-03-01T23:35:10;25.17;;;12.27;;
16624;SDS011;8426;48.496;9.098;2023-03-01T23:40:14;36.73;;;13.33;;
16624;SDS011;8426;48.496;9.098;2023-03-01T23:45:17;26.33;;;11.23;;
16624;SDS011;8426;48.496;9.098;2023-03-01T23:50:22;34.60;;;14.30;;
16624;SDS011;8426;48.496;9.098;2023-03-01T23:55:26;26.90;;;11.13;;
